Mustang, Nevada
Current Conditions -  °F | °C
As of 3:55 AM on Tuesday 21 Oct 2014 (Local Time) from KRNO Reporting Station
Few Clouds Few Clouds  
Wind Chill: 42°   Ceiling: Unl
Heat Index: 46°   Visibility: 10mi
Dew Point: 29°   Wind: 7mph
Humidity: 51%   Direction: 280°W
Pressure: 30.05"   Gusts: NA
Location:  39.5403°N, 119.672°W
Report Text: KRNO 211055Z 28006KT 10SM FEW100 08/M02 A3005 RMK AO2 SLP143 T00781017
Loading
Personal Weather Stations






























Interactive Weather Map
Tropical Storm Tracking
New forecast layout! Learn more

10-Day Weather Forecast

Advertisements
Track Severe Weather on mobile